Time;durP1;ratioP1;P1;durP2;ratioP2;P2;SDS_P1;SDS_P2;PMS_P1;PMS_P2;Temp;Humidity;BMP_temperature;BMP_pressure;BME280_temperature;BME280_humidity;BME280_pressure;Samples;Min_cycle;Max_cycle;Signal;HPM_P1;HPM_P2
2023/03/02 00:02:16;;;;;;;33.43;20.07;;;;;;;;;;4942445;28;20305;-87
2023/03/02 00:04:45;;;;;;;29.67;21.10;;;;;;;;;;4959350;28;20227;-87
2023/03/02 00:07:13;;;;;;;35.40;21.13;;;;;;;;;;4958662;28;20236;-87
2023/03/02 00:09:41;;;;;;;36.60;20.77;;;;;;;;;;4946106;28;20233;-88
2023/03/02 00:12:07;;;;;;;33.30;19.47;;;;;;;;;;4946647;28;20218;-87
2023/03/02 00:14:36;;;;;;;26.83;19.80;;;;;;;;;;4942353;28;20244;-87
2023/03/02 00:17:06;;;;;;;28.10;20.20;;;;;;;;;;4943579;28;20648;-87
2023/03/02 00:19:35;;;;;;;37.03;20.70;;;;;;;;;;4947895;28;20226;-88
2023/03/02 00:22:02;;;;;;;29.10;18.60;;;;;;;;;;4943342;28;20224;-88
2023/03/02 00:24:28;;;;;;;30.87;20.30;;;;;;;;;;4939895;28;20229;-89
2023/03/02 00:26:56;;;;;;;20.73;17.90;;;;;;;;;;4926532;28;20632;-86
2023/03/02 00:29:24;;;;;;;32.83;19.90;;;;;;;;;;4942343;28;20740;-87
2023/03/02 00:31:51;;;;;;;42.43;18.27;;;;;;;;;;4927273;28;20213;-87
2023/03/02 00:34:17;;;;;;;36.50;20.07;;;;;;;;;;4921941;28;20257;-87
2023/03/02 00:36:48;;;;;;;25.90;19.37;;;;;;;;;;4944764;28;20235;-87
2023/03/02 00:39:14;;;;;;;28.80;20.40;;;;;;;;;;4942595;28;20244;-87
2023/03/02 00:41:39;;;;;;;34.13;19.57;;;;;;;;;;4944485;28;20218;-88
2023/03/02 00:44:05;;;;;;;33.37;19.17;;;;;;;;;;4939430;28;20230;-86
2023/03/02 00:46:30;;;;;;;37.80;20.50;;;;;;;;;;4926647;28;20285;-87
2023/03/02 00:48:56;;;;;;;33.77;19.57;;;;;;;;;;4927056;28;20245;-87
2023/03/02 00:51:26;;;;;;;31.43;20.00;;;;;;;;;;4945360;28;20694;-87
2023/03/02 00:53:52;;;;;;;33.57;18.47;;;;;;;;;;4927841;28;20221;-88
2023/03/02 00:56:19;;;;;;;34.20;18.63;;;;;;;;;;4942101;28;20249;-88
2023/03/02 00:58:48;;;;;;;38.53;19.50;;;;;;;;;;4926239;28;20217;-87
2023/03/02 01:01:16;;;;;;;30.97;19.60;;;;;;;;;;4925071;28;20222;-86
2023/03/02 01:03:50;;;;;;;33.93;19.40;;;;;;;;;;4962952;28;20232;-85
2023/03/02 01:06:17;;;;;;;37.37;18.57;;;;;;;;;;4937111;28;20314;-88
2023/03/02 01:08:45;;;;;;;27.27;18.53;;;;;;;;;;4945709;28;20217;-88
2023/03/02 01:11:15;;;;;;;32.83;19.33;;;;;;;;;;4941378;28;20226;-87
2023/03/02 01:13:43;;;;;;;27.87;19.33;;;;;;;;;;4947479;28;20218;-88
2023/03/02 01:16:09;;;;;;;33.27;18.83;;;;;;;;;;4925979;28;20250;-88
2023/03/02 01:18:37;;;;;;;44.40;20.33;;;;;;;;;;4921727;28;20233;-87
2023/03/02 01:21:07;;;;;;;33.40;20.93;;;;;;;;;;4948457;28;20224;-87
2023/03/02 01:23:35;;;;;;;32.97;19.70;;;;;;;;;;4940839;28;20230;-87
2023/03/02 01:26:01;;;;;;;24.63;19.47;;;;;;;;;;4942787;28;20637;-87
2023/03/02 01:28:29;;;;;;;22.90;19.30;;;;;;;;;;4943610;28;20241;-87
2023/03/02 01:30:56;;;;;;;25.90;20.57;;;;;;;;;;4921380;28;20217;-87
2023/03/02 01:33:24;;;;;;;29.27;19.60;;;;;;;;;;4941283;28;20586;-88
2023/03/02 01:35:50;;;;;;;38.47;20.27;;;;;;;;;;4933503;28;20338;-88
2023/03/02 01:38:15;;;;;;;34.30;18.83;;;;;;;;;;4937598;28;20233;-87
2023/03/02 01:40:40;;;;;;;27.60;18.73;;;;;;;;;;4923826;28;20609;-88
2023/03/02 01:43:14;;;;;;;31.60;18.13;;;;;;;;;;4923715;28;20490;-88
2023/03/02 01:45:44;;;;;;;31.13;17.57;;;;;;;;;;4943062;28;20245;-87
2023/03/02 01:48:14;;;;;;;28.77;17.57;;;;;;;;;;4967509;28;20637;-89
2023/03/02 01:50:39;;;;;;;37.83;16.10;;;;;;;;;;4940838;28;20209;-87
2023/03/02 01:53:07;;;;;;;32.13;16.63;;;;;;;;;;4962909;28;20228;-88
2023/03/02 01:55:38;;;;;;;29.43;17.27;;;;;;;;;;4933792;28;20237;-88
2023/03/02 01:58:04;;;;;;;33.50;18.13;;;;;;;;;;4929912;28;20249;-90
2023/03/02 02:00:32;;;;;;;43.93;17.90;;;;;;;;;;4934502;28;20221;-87
2023/03/02 02:03:07;;;;;;;34.53;17.63;;;;;;;;;;4945883;28;20710;-88
2023/03/02 02:05:37;;;;;;;31.93;18.53;;;;;;;;;;4928331;28;20745;-88
2023/03/02 02:08:03;;;;;;;29.03;17.07;;;;;;;;;;4927889;28;20240;-88
2023/03/02 02:10:30;;;;;;;50.43;18.37;;;;;;;;;;4939913;28;20250;-88
2023/03/02 02:12:55;;;;;;;45.93;17.33;;;;;;;;;;4923505;28;20225;-88
2023/03/02 02:15:23;;;;;;;35.67;18.40;;;;;;;;;;4945897;28;20786;-88
2023/03/02 02:17:50;;;;;;;29.33;17.93;;;;;;;;;;4930993;28;20225;-89
2023/03/02 02:20:25;;;;;;;25.60;18.10;;;;;;;;;;4923307;28;20265;-88
2023/03/02 02:22:54;;;;;;;22.07;15.60;;;;;;;;;;4992536;28;20236;-88
2023/03/02 02:25:54;;;;;;;31.97;17.83;;;;;;;;;;4966459;28;20313;-87
2023/03/02 02:28:22;;;;;;;37.37;16.10;;;;;;;;;;4973445;28;20225;-88
2023/03/02 02:30:49;;;;;;;37.13;16.40;;;;;;;;;;4939752;28;20224;-88
2023/03/02 02:33:16;;;;;;;29.60;17.77;;;;;;;;;;4921706;28;20218;-87
2023/03/02 02:35:44;;;;;;;45.07;16.47;;;;;;;;;;4950515;28;20217;-88
2023/03/02 02:38:12;;;;;;;25.97;17.23;;;;;;;;;;4923995;28;20221;-88
2023/03/02 02:40:47;;;;;;;37.43;18.40;;;;;;;;;;4922359;28;20244;-88
2023/03/02 02:43:16;;;;;;;33.43;15.47;;;;;;;;;;4938739;28;20225;-87
2023/03/02 02:45:42;;;;;;;36.60;16.40;;;;;;;;;;4930601;28;20313;-87
2023/03/02 02:48:12;;;;;;;25.10;15.57;;;;;;;;;;4939057;28;20250;-86
2023/03/02 02:50:37;;;;;;;25.23;15.43;;;;;;;;;;4949822;28;20214;-88
2023/03/02 02:53:06;;;;;;;32.03;15.70;;;;;;;;;;4925019;28;20223;-87
2023/03/02 02:55:34;;;;;;;35.97;16.53;;;;;;;;;;4941999;28;20703;-89
2023/03/02 02:58:01;;;;;;;32.23;15.93;;;;;;;;;;4928534;28;20276;-87
2023/03/02 03:00:29;;;;;;;32.27;16.70;;;;;;;;;;4939591;28;20776;-88
2023/03/02 03:03:01;;;;;;;28.93;14.70;;;;;;;;;;4928648;28;20225;-88
2023/03/02 03:05:29;;;;;;;24.37;14.17;;;;;;;;;;4924455;28;20257;-86
2023/03/02 03:08:06;;;;;;;29.67;14.03;;;;;;;;;;4943789;28;20434;-88
2023/03/02 03:10:38;;;;;;;26.97;13.60;;;;;;;;;;4939680;28;20221;-87
2023/03/02 03:13:06;;;;;;;43.50;14.33;;;;;;;;;;4931045;28;20732;-86
2023/03/02 03:15:32;;;;;;;35.87;15.20;;;;;;;;;;4932114;28;20224;-87
2023/03/02 03:17:58;;;;;;;29.27;14.40;;;;;;;;;;4922892;28;20891;-87
2023/03/02 03:20:32;;;;;;;53.97;15.13;;;;;;;;;;4952683;28;20697;-89
2023/03/02 03:23:00;;;;;;;32.20;13.40;;;;;;;;;;4927908;28;20225;-88
2023/03/02 03:25:28;;;;;;;31.80;14.57;;;;;;;;;;4944755;28;20221;-87
2023/03/02 03:27:54;;;;;;;30.67;13.43;;;;;;;;;;4942941;28;20717;-88
2023/03/02 03:30:21;;;;;;;36.47;14.87;;;;;;;;;;4933147;28;20202;-87
2023/03/02 03:32:47;;;;;;;33.80;14.93;;;;;;;;;;4964295;28;20213;-86
2023/03/02 03:35:16;;;;;;;21.17;12.73;;;;;;;;;;4934001;28;20685;-89
2023/03/02 03:37:42;;;;;;;27.80;14.23;;;;;;;;;;4933327;28;20201;-88
2023/03/02 03:40:10;;;;;;;28.13;12.67;;;;;;;;;;4984534;28;20744;-88
2023/03/02 03:42:38;;;;;;;25.30;13.17;;;;;;;;;;4945470;28;20245;-87
2023/03/02 03:45:05;;;;;;;23.00;13.43;;;;;;;;;;4939597;28;20225;-88
2023/03/02 03:47:34;;;;;;;22.00;14.20;;;;;;;;;;4947439;28;20237;-88
2023/03/02 03:50:04;;;;;;;31.43;13.60;;;;;;;;;;4949434;28;20214;-88
2023/03/02 03:52:30;;;;;;;23.03;13.70;;;;;;;;;;4947591;28;20228;-89
2023/03/02 03:55:04;;;;;;;25.77;13.00;;;;;;;;;;4949272;28;20217;-87
2023/03/02 03:57:34;;;;;;;19.57;13.10;;;;;;;;;;4947682;28;20218;-89
2023/03/02 04:00:00;;;;;;;20.87;13.33;;;;;;;;;;4929112;28;20268;-90
2023/03/02 04:02:25;;;;;;;17.60;12.97;;;;;;;;;;4937273;28;20218;-88
2023/03/02 04:04:51;;;;;;;28.43;12.90;;;;;;;;;;4931752;28;20241;-88
2023/03/02 04:07:19;;;;;;;15.00;13.40;;;;;;;;;;4930250;28;20234;-89
2023/03/02 04:09:45;;;;;;;16.93;13.67;;;;;;;;;;4934985;28;20210;-88
2023/03/02 04:12:13;;;;;;;16.20;13.80;;;;;;;;;;4946890;28;20218;-88
2023/03/02 04:14:44;;;;;;;22.93;13.77;;;;;;;;;;4948079;28;20218;-87
2023/03/02 04:17:13;;;;;;;19.57;12.97;;;;;;;;;;4946972;28;20217;-88
2023/03/02 04:19:44;;;;;;;18.60;12.07;;;;;;;;;;4930424;28;20654;-88
2023/03/02 04:22:14;;;;;;;18.00;12.97;;;;;;;;;;4925414;28;20217;-88
2023/03/02 04:24:39;;;;;;;23.40;12.80;;;;;;;;;;4943361;28;20291;-86
2023/03/02 04:27:08;;;;;;;14.27;12.77;;;;;;;;;;4964122;28;20592;-88
2023/03/02 04:29:35;;;;;;;21.13;12.13;;;;;;;;;;4937641;28;20249;-88
2023/03/02 04:32:02;;;;;;;17.50;13.07;;;;;;;;;;4929181;28;20272;-88
2023/03/02 04:34:29;;;;;;;19.00;12.03;;;;;;;;;;4932936;28;20230;-88
2023/03/02 04:36:55;;;;;;;22.83;13.23;;;;;;;;;;4953884;28;20228;-87
2023/03/02 04:39:23;;;;;;;23.43;13.00;;;;;;;;;;4945588;28;20226;-87
2023/03/02 04:41:50;;;;;;;13.83;12.23;;;;;;;;;;4963773;28;20252;-87
2023/03/02 04:44:16;;;;;;;20.00;11.70;;;;;;;;;;4955248;28;20234;-88
2023/03/02 04:46:41;;;;;;;17.77;12.40;;;;;;;;;;4945121;28;20225;-88
2023/03/02 04:49:09;;;;;;;24.50;13.03;;;;;;;;;;4972111;28;20206;-88
2023/03/02 04:51:37;;;;;;;19.83;12.17;;;;;;;;;;4959217;28;20233;-89
2023/03/02 04:54:06;;;;;;;19.27;11.73;;;;;;;;;;4973610;28;20242;-89
2023/03/02 04:56:34;;;;;;;21.93;12.63;;;;;;;;;;4983677;28;20539;-89
2023/03/02 04:58:59;;;;;;;25.17;12.93;;;;;;;;;;4985156;28;20213;-89
2023/03/02 05:01:25;;;;;;;28.70;13.10;;;;;;;;;;4968317;28;20229;-89
2023/03/02 05:03:50;;;;;;;27.83;12.43;;;;;;;;;;4947973;28;20209;-88
2023/03/02 05:06:16;;;;;;;17.97;13.27;;;;;;;;;;4952823;28;20229;-88
2023/03/02 05:08:42;;;;;;;42.20;13.53;;;;;;;;;;4949180;28;20218;-88
2023/03/02 05:11:14;;;;;;;25.73;12.97;;;;;;;;;;4946312;28;20384;-89
2023/03/02 05:13:42;;;;;;;24.00;12.17;;;;;;;;;;4972197;28;20221;-89
2023/03/02 05:16:10;;;;;;;22.60;13.20;;;;;;;;;;4927965;28;20198;-90
2023/03/02 05:18:38;;;;;;;23.53;13.23;;;;;;;;;;4945136;28;20220;-88
2023/03/02 05:21:03;;;;;;;18.33;13.60;;;;;;;;;;4949740;28;20223;-87
2023/03/02 05:23:30;;;;;;;20.43;12.03;;;;;;;;;;4942352;28;20320;-89
2023/03/02 05:25:56;;;;;;;18.20;12.77;;;;;;;;;;4949932;28;20225;-89
2023/03/02 05:28:25;;;;;;;24.80;13.13;;;;;;;;;;4932301;28;20229;-89
2023/03/02 05:30:50;;;;;;;18.50;12.70;;;;;;;;;;4943722;28;20218;-89
2023/03/02 05:33:16;;;;;;;26.93;13.13;;;;;;;;;;4929796;28;20690;-89
2023/03/02 05:35:44;;;;;;;29.70;14.53;;;;;;;;;;4942863;28;20216;-88
2023/03/02 05:38:10;;;;;;;20.30;12.67;;;;;;;;;;4928696;28;20214;-88
2023/03/02 05:40:36;;;;;;;26.87;13.00;;;;;;;;;;4932718;28;20333;-88
2023/03/02 05:43:02;;;;;;;18.80;13.23;;;;;;;;;;4941674;28;20313;-89
2023/03/02 05:45:32;;;;;;;28.73;14.93;;;;;;;;;;4944278;28;20244;-88
2023/03/02 05:47:58;;;;;;;20.93;13.20;;;;;;;;;;4928660;28;20279;-89
2023/03/02 05:50:24;;;;;;;20.33;13.43;;;;;;;;;;4937955;28;20213;-88
2023/03/02 05:52:49;;;;;;;20.97;13.90;;;;;;;;;;4954423;28;20229;-88
2023/03/02 05:55:18;;;;;;;23.73;14.20;;;;;;;;;;4925664;28;20229;-87
2023/03/02 05:57:48;;;;;;;21.77;13.50;;;;;;;;;;4962350;28;20205;-87
2023/03/02 06:00:19;;;;;;;33.57;13.63;;;;;;;;;;4962155;28;20213;-88
2023/03/02 06:02:44;;;;;;;24.70;12.73;;;;;;;;;;4933563;28;20214;-87
2023/03/02 06:05:15;;;;;;;25.00;12.67;;;;;;;;;;4927112;28;20744;-87
2023/03/02 06:07:40;;;;;;;20.87;13.53;;;;;;;;;;4939723;28;20222;-87
2023/03/02 06:10:10;;;;;;;29.47;13.33;;;;;;;;;;4962827;28;20669;-87
2023/03/02 06:12:38;;;;;;;29.30;14.20;;;;;;;;;;4934396;28;20228;-88
2023/03/02 06:15:04;;;;;;;16.43;13.53;;;;;;;;;;4926576;28;20309;-89
2023/03/02 06:17:29;;;;;;;19.43;13.63;;;;;;;;;;4940044;28;20237;-90
2023/03/02 06:19:57;;;;;;;18.30;13.23;;;;;;;;;;4926889;28;20213;-89
2023/03/02 06:22:22;;;;;;;17.13;14.03;;;;;;;;;;4932645;28;20366;-88
2023/03/02 06:24:48;;;;;;;16.13;13.17;;;;;;;;;;4924453;28;20305;-88
2023/03/02 06:27:13;;;;;;;34.83;14.73;;;;;;;;;;4925631;28;20678;-89
2023/03/02 06:29:39;;;;;;;22.27;14.53;;;;;;;;;;4946113;28;20230;-88
2023/03/02 06:32:04;;;;;;;20.73;14.40;;;;;;;;;;4944975;28;20203;-89
2023/03/02 06:34:30;;;;;;;17.20;14.87;;;;;;;;;;4936577;28;20213;-89
2023/03/02 06:36:56;;;;;;;18.70;14.40;;;;;;;;;;4941112;28;20226;-88
2023/03/02 06:39:21;;;;;;;24.63;15.93;;;;;;;;;;4932881;28;20226;-88
2023/03/02 06:41:47;;;;;;;17.77;13.70;;;;;;;;;;4941151;28;20239;-89
2023/03/02 06:44:13;;;;;;;18.37;14.30;;;;;;;;;;4928983;28;20234;-89
2023/03/02 06:46:38;;;;;;;29.27;14.03;;;;;;;;;;4941353;28;20242;-88
2023/03/02 06:49:04;;;;;;;29.27;13.47;;;;;;;;;;4939316;28;20218;-88
2023/03/02 06:51:30;;;;;;;26.63;13.37;;;;;;;;;;4953866;28;20217;-88
2023/03/02 06:53:55;;;;;;;23.73;13.10;;;;;;;;;;4958062;28;20260;-88
2023/03/02 06:56:21;;;;;;;29.77;14.00;;;;;;;;;;4930668;28;20480;-88
2023/03/02 06:58:46;;;;;;;28.17;14.80;;;;;;;;;;4929918;28;20226;-89
2023/03/02 07:01:12;;;;;;;24.10;13.00;;;;;;;;;;4931315;28;20222;-88
2023/03/02 07:03:42;;;;;;;19.10;13.50;;;;;;;;;;4927905;28;20651;-88
2023/03/02 07:06:09;;;;;;;20.37;14.23;;;;;;;;;;4940403;28;20321;-88
2023/03/02 07:08:34;;;;;;;30.40;14.30;;;;;;;;;;4953979;28;20217;-89
2023/03/02 07:11:04;;;;;;;23.77;13.83;;;;;;;;;;4944056;28;20631;-88
2023/03/02 07:13:32;;;;;;;24.33;13.80;;;;;;;;;;4950163;28;20229;-88
2023/03/02 07:15:58;;;;;;;18.47;13.40;;;;;;;;;;4947615;28;20304;-89
2023/03/02 07:18:23;;;;;;;23.53;13.43;;;;;;;;;;4923831;28;20222;-82
2023/03/02 07:20:51;;;;;;;16.53;13.17;;;;;;;;;;4951421;28;20225;-82
2023/03/02 07:23:17;;;;;;;20.10;11.57;;;;;;;;;;4967008;28;20233;-80
2023/03/02 07:25:42;;;;;;;40.87;12.33;;;;;;;;;;4960975;28;20253;-82
2023/03/02 07:28:08;;;;;;;28.20;11.80;;;;;;;;;;4991045;28;20593;-82
2023/03/02 07:30:35;;;;;;;31.67;12.50;;;;;;;;;;4949165;28;20281;-79
2023/03/02 07:33:03;;;;;;;24.13;13.00;;;;;;;;;;4934408;28;20236;-80
2023/03/02 07:35:29;;;;;;;22.30;12.93;;;;;;;;;;4927790;28;20226;-82
2023/03/02 07:37:54;;;;;;;18.77;13.67;;;;;;;;;;4948705;28;20244;-81
2023/03/02 07:40:20;;;;;;;16.23;13.27;;;;;;;;;;4942924;28;20222;-82
2023/03/02 07:42:45;;;;;;;26.97;13.47;;;;;;;;;;4947884;28;20221;-82
2023/03/02 07:45:14;;;;;;;20.17;13.67;;;;;;;;;;4940878;28;20249;-80
2023/03/02 07:47:39;;;;;;;17.63;13.57;;;;;;;;;;4951042;28;20654;-81
2023/03/02 07:50:08;;;;;;;19.57;13.90;;;;;;;;;;4974279;28;20226;-81
2023/03/02 07:52:33;;;;;;;21.07;13.20;;;;;;;;;;4943650;28;20228;-83
2023/03/02 07:54:59;;;;;;;19.43;12.97;;;;;;;;;;4962815;28;20309;-80
2023/03/02 07:57:24;;;;;;;31.13;13.33;;;;;;;;;;4941139;28;20236;-82
2023/03/02 07:59:50;;;;;;;20.20;13.50;;;;;;;;;;4959535;28;20220;-83
2023/03/02 08:02:19;;;;;;;15.33;11.73;;;;;;;;;;4956676;28;20224;-83
2023/03/02 08:04:45;;;;;;;14.00;12.60;;;;;;;;;;4963028;28;20279;-81
2023/03/02 08:07:13;;;;;;;23.87;15.13;;;;;;;;;;4944859;28;20273;-81
2023/03/02 08:09:39;;;;;;;22.17;12.13;;;;;;;;;;4953210;28;20738;-82
2023/03/02 08:12:04;;;;;;;25.17;13.27;;;;;;;;;;4946234;28;20229;-81
2023/03/02 08:14:30;;;;;;;17.60;12.57;;;;;;;;;;4943823;28;20292;-82
2023/03/02 08:16:55;;;;;;;18.40;13.10;;;;;;;;;;4960351;28;20220;-81
2023/03/02 08:19:21;;;;;;;49.13;11.37;;;;;;;;;;4952597;28;20222;-80
2023/03/02 08:21:47;;;;;;;28.33;11.93;;;;;;;;;;4961633;28;20304;-81
2023/03/02 08:24:16;;;;;;;17.30;11.80;;;;;;;;;;4957827;28;20225;-82
2023/03/02 08:26:42;;;;;;;12.50;11.07;;;;;;;;;;4983017;28;20228;-81
2023/03/02 08:29:07;;;;;;;31.93;11.93;;;;;;;;;;4948056;28;20648;-82
2023/03/02 08:31:40;;;;;;;28.40;11.10;;;;;;;;;;4939009;28;20221;-82
2023/03/02 08:34:05;;;;;;;22.00;11.00;;;;;;;;;;4939595;28;20256;-83
2023/03/02 08:36:31;;;;;;;25.53;11.57;;;;;;;;;;4949383;28;20217;-82
2023/03/02 08:38:56;;;;;;;29.90;12.37;;;;;;;;;;4963443;28;20222;-82
2023/03/02 08:41:25;;;;;;;23.87;13.23;;;;;;;;;;4947499;28;21482;-81
2023/03/02 08:43:53;;;;;;;26.53;11.93;;;;;;;;;;4949016;28;20213;-83
2023/03/02 08:46:18;;;;;;;29.10;12.07;;;;;;;;;;4963573;28;20792;-82
2023/03/02 08:48:44;;;;;;;60.10;11.67;;;;;;;;;;4945534;28;20217;-82
2023/03/02 08:51:14;;;;;;;27.23;10.70;;;;;;;;;;4945698;28;20275;-82
2023/03/02 08:53:42;;;;;;;29.73;9.87;;;;;;;;;;4945995;28;20280;-82
2023/03/02 08:56:20;;;;;;;23.73;11.77;;;;;;;;;;4968972;28;20701;-82
2023/03/02 08:58:50;;;;;;;17.50;10.97;;;;;;;;;;4974802;28;20224;-82
2023/03/02 09:01:20;;;;;;;37.93;11.67;;;;;;;;;;4942724;28;20225;-82
2023/03/02 09:03:45;;;;;;;15.13;10.47;;;;;;;;;;4922342;28;20625;-79
2023/03/02 09:06:11;;;;;;;11.80;10.53;;;;;;;;;;4963874;28;20226;-80
2023/03/02 09:08:39;;;;;;;30.63;10.73;;;;;;;;;;4929747;28;20597;-82
2023/03/02 09:11:05;;;;;;;15.87;10.43;;;;;;;;;;4961701;28;20229;-82
2023/03/02 09:13:32;;;;;;;28.47;11.23;;;;;;;;;;4962200;28;20244;-82
2023/03/02 09:16:01;;;;;;;17.83;10.60;;;;;;;;;;4946637;28;20225;-82
2023/03/02 09:18:27;;;;;;;23.53;11.23;;;;;;;;;;4965730;28;20220;-83
2023/03/02 09:20:58;;;;;;;29.83;11.40;;;;;;;;;;4946097;28;20221;-82
2023/03/02 09:23:26;;;;;;;15.10;10.53;;;;;;;;;;4977656;28;20225;-83
2023/03/02 09:25:52;;;;;;;15.60;9.90;;;;;;;;;;4945389;28;20720;-82
2023/03/02 09:28:18;;;;;;;15.30;10.40;;;;;;;;;;4953037;28;20267;-82
2023/03/02 09:30:48;;;;;;;14.47;10.80;;;;;;;;;;4962485;28;20221;-80
2023/03/02 09:33:13;;;;;;;11.17;9.67;;;;;;;;;;4940337;28;20240;-83
2023/03/02 09:35:41;;;;;;;17.80;10.10;;;;;;;;;;4953106;28;20221;-82
2023/03/02 09:38:07;;;;;;;19.97;10.77;;;;;;;;;;4944827;28;20223;-82
2023/03/02 09:40:32;;;;;;;19.57;10.33;;;;;;;;;;4944419;28;20213;-82
2023/03/02 09:43:13;;;;;;;26.83;10.73;;;;;;;;;;4944822;28;20226;-83
2023/03/02 09:46:05;;;;;;;18.00;10.63;;;;;;;;;;4976485;28;20732;-83
2023/03/02 09:48:57;;;;;;;14.20;10.90;;;;;;;;;;4983665;28;20284;-82
2023/03/02 09:51:59;;;;;;;12.53;10.83;;;;;;;;;;4974450;28;20291;-83
2023/03/02 09:54:24;;;;;;;12.20;10.93;;;;;;;;;;4955766;28;20233;-80
2023/03/02 09:56:56;;;;;;;11.20;10.10;;;;;;;;;;4957378;28;20232;-83
2023/03/02 09:59:32;;;;;;;13.00;11.80;;;;;;;;;;4956424;28;20269;-81
2023/03/02 10:02:05;;;;;;;12.13;9.80;;;;;;;;;;4965894;28;20682;-82
2023/03/02 10:04:37;;;;;;;10.97;8.67;;;;;;;;;;4958357;28;20229;-82
2023/03/02 10:07:13;;;;;;;10.03;8.93;;;;;;;;;;4943998;28;20217;-81
2023/03/02 10:09:39;;;;;;;9.27;8.37;;;;;;;;;;4956219;28;20338;-82
2023/03/02 10:12:26;;;;;;;12.03;8.37;;;;;;;;;;4951235;28;20214;-81
2023/03/02 10:15:00;;;;;;;11.10;8.97;;;;;;;;;;4981027;28;20973;-82
2023/03/02 10:17:41;;;;;;;8.53;7.73;;;;;;;;;;4949723;28;20584;-83
2023/03/02 10:20:36;;;;;;;11.13;7.50;;;;;;;;;;4964619;28;20221;-83
2023/03/02 10:23:30;;;;;;;8.83;8.00;;;;;;;;;;4936771;28;20230;-82
2023/03/02 10:26:25;;;;;;;7.87;7.10;;;;;;;;;;4975155;28;20249;-82
2023/03/02 10:29:09;;;;;;;8.60;7.67;;;;;;;;;;4972147;28;20229;-83
2023/03/02 10:31:35;;;;;;;7.53;6.93;;;;;;;;;;4971012;28;20690;-82
2023/03/02 10:34:00;;;;;;;7.10;6.50;;;;;;;;;;4921471;28;20789;-82
2023/03/02 10:36:33;;;;;;;7.03;6.43;;;;;;;;;;4970964;28;20228;-82
2023/03/02 10:38:59;;;;;;;8.10;7.30;;;;;;;;;;4925495;28;20221;-83
2023/03/02 10:41:35;;;;;;;10.07;7.27;;;;;;;;;;4941746;28;20221;-82
2023/03/02 10:44:06;;;;;;;7.77;7.07;;;;;;;;;;4943952;28;20232;-82
2023/03/02 10:46:43;;;;;;;7.70;7.00;;;;;;;;;;4941963;28;20222;-82
2023/03/02 10:49:27;;;;;;;7.37;6.50;;;;;;;;;;4951242;28;20217;-82
2023/03/02 10:52:06;;;;;;;8.10;7.33;;;;;;;;;;4969862;28;20226;-83
2023/03/02 10:54:39;;;;;;;7.50;6.80;;;;;;;;;;4939107;28;20222;-81
2023/03/02 10:57:36;;;;;;;8.13;6.60;;;;;;;;;;4953597;28;20252;-83
2023/03/02 11:00:13;;;;;;;6.90;6.30;;;;;;;;;;4975216;28;20218;-83
2023/03/02 11:02:40;;;;;;;7.37;6.67;;;;;;;;;;4955573;28;20225;-81
2023/03/02 11:05:14;;;;;;;7.03;6.30;;;;;;;;;;4939449;28;20236;-83
2023/03/02 11:07:50;;;;;;;7.47;6.73;;;;;;;;;;4984891;28;20701;-82
2023/03/02 11:10:17;;;;;;;6.53;6.03;;;;;;;;;;4941567;28;20662;-85
2023/03/02 11:12:47;;;;;;;7.07;6.37;;;;;;;;;;4957200;28;20300;-83
2023/03/02 11:15:52;;;;;;;7.43;6.73;;;;;;;;;;4961005;28;20446;-82
2023/03/02 11:18:48;;;;;;;6.80;6.20;;;;;;;;;;4927704;28;20252;-81
2023/03/02 11:21:36;;;;;;;7.20;6.50;;;;;;;;;;4980704;28;20218;-81
2023/03/02 11:24:11;;;;;;;7.17;6.57;;;;;;;;;;4974790;28;20284;-82
2023/03/02 11:26:58;;;;;;;6.80;6.20;;;;;;;;;;4974693;28;20257;-82
2023/03/02 11:29:48;;;;;;;7.40;6.60;;;;;;;;;;4956111;28;20233;-83
2023/03/02 11:32:19;;;;;;;7.47;6.70;;;;;;;;;;4994683;28;20226;-82
2023/03/02 11:34:45;;;;;;;9.17;6.33;;;;;;;;;;4979733;28;20295;-83
2023/03/02 11:37:27;;;;;;;6.80;6.20;;;;;;;;;;4985973;28;20246;-83
2023/03/02 11:39:59;;;;;;;7.20;6.60;;;;;;;;;;4971063;28;20289;-83
2023/03/02 11:42:32;;;;;;;7.17;6.57;;;;;;;;;;4976028;28;20761;-84
2023/03/02 11:45:19;;;;;;;6.97;6.30;;;;;;;;;;4942544;28;20234;-84
2023/03/02 11:47:51;;;;;;;6.77;6.17;;;;;;;;;;4970291;28;20291;-84
2023/03/02 11:50:18;;;;;;;7.43;6.73;;;;;;;;;;4925203;28;20238;-84
2023/03/02 11:52:47;;;;;;;6.83;6.23;;;;;;;;;;4959863;28;20746;-83
2023/03/02 11:55:21;;;;;;;7.47;6.77;;;;;;;;;;4942028;28;20229;-83
2023/03/02 11:57:58;;;;;;;7.47;6.53;;;;;;;;;;4960325;28;20212;-83
2023/03/02 12:00:29;;;;;;;7.47;6.73;;;;;;;;;;4953367;28;20224;-82
2023/03/02 12:03:14;;;;;;;6.70;6.10;;;;;;;;;;4982843;28;20237;-82
2023/03/02 12:05:40;;;;;;;7.13;6.43;;;;;;;;;;4966714;28;20226;-82
2023/03/02 12:08:18;;;;;;;7.20;6.60;;;;;;;;;;4955137;28;20213;-83
2023/03/02 12:10:59;;;;;;;6.67;6.00;;;;;;;;;;4971781;28;20226;-83
2023/03/02 12:13:26;;;;;;;7.40;6.80;;;;;;;;;;4990339;28;20275;-84
2023/03/02 12:15:57;;;;;;;7.10;6.50;;;;;;;;;;4940949;28;20207;-83
2023/03/02 12:18:23;;;;;;;6.93;6.40;;;;;;;;;;4961738;28;20225;-81
2023/03/02 12:21:02;;;;;;;6.67;6.07;;;;;;;;;;4974548;28;20225;-83
2023/03/02 12:23:30;;;;;;;6.70;6.10;;;;;;;;;;4973215;28;20229;-84
2023/03/02 12:26:08;;;;;;;6.33;5.83;;;;;;;;;;4938511;28;20222;-83
2023/03/02 12:28:37;;;;;;;6.50;5.90;;;;;;;;;;4946157;28;20233;-83
2023/03/02 12:31:08;;;;;;;6.10;5.60;;;;;;;;;;4945155;28;20214;-83
2023/03/02 12:33:49;;;;;;;6.20;5.70;;;;;;;;;;4925252;28;20245;-84
2023/03/02 12:36:40;;;;;;;6.93;6.10;;;;;;;;;;4948587;28;20218;-84
2023/03/02 12:39:19;;;;;;;5.50;5.00;;;;;;;;;;4957797;28;20238;-83
2023/03/02 12:42:00;;;;;;;5.77;4.77;;;;;;;;;;4958361;28;20221;-83
2023/03/02 12:44:54;;;;;;;5.67;5.17;;;;;;;;;;4956885;28;20329;-84
2023/03/02 12:47:25;;;;;;;5.60;5.10;;;;;;;;;;4958524;28;20229;-82
2023/03/02 12:49:56;;;;;;;5.57;5.07;;;;;;;;;;4945993;28;20232;-83
2023/03/02 12:52:35;;;;;;;5.87;5.37;;;;;;;;;;4926228;28;20312;-84
2023/03/02 12:55:20;;;;;;;5.40;5.00;;;;;;;;;;4976033;28;20221;-83
2023/03/02 12:57:48;;;;;;;5.47;4.93;;;;;;;;;;4968073;28;20225;-82
2023/03/02 13:00:17;;;;;;;6.17;5.57;;;;;;;;;;4953294;28;20703;-84
2023/03/02 13:02:47;;;;;;;5.87;5.37;;;;;;;;;;4937962;28;20218;-82
2023/03/02 13:05:29;;;;;;;5.90;5.40;;;;;;;;;;4962465;28;20230;-82
2023/03/02 13:08:05;;;;;;;5.80;4.83;;;;;;;;;;4960679;28;20580;-83
2023/03/02 13:10:36;;;;;;;5.17;4.77;;;;;;;;;;4943158;28;20221;-83
2023/03/02 13:13:11;;;;;;;5.00;4.60;;;;;;;;;;4939560;28;20248;-84
2023/03/02 13:15:37;;;;;;;5.80;5.30;;;;;;;;;;4976100;28;20229;-84
2023/03/02 13:18:05;;;;;;;4.97;4.50;;;;;;;;;;4943176;28;20234;-84
2023/03/02 13:20:30;;;;;;;5.07;4.67;;;;;;;;;;4938322;28;20233;-84
2023/03/02 13:22:56;;;;;;;5.07;4.67;;;;;;;;;;4944449;28;20228;-85
2023/03/02 13:25:27;;;;;;;5.27;4.87;;;;;;;;;;4951755;28;20218;-82
2023/03/02 13:27:59;;;;;;;5.23;4.73;;;;;;;;;;4979911;28;20218;-83
2023/03/02 13:30:29;;;;;;;5.13;4.73;;;;;;;;;;4935174;28;20222;-83
2023/03/02 13:32:59;;;;;;;5.80;5.30;;;;;;;;;;4955217;28;20218;-83
2023/03/02 13:35:26;;;;;;;5.43;5.03;;;;;;;;;;4943212;28;20241;-83
2023/03/02 13:38:05;;;;;;;6.07;5.47;;;;;;;;;;4944303;28;20279;-82
2023/03/02 13:40:37;;;;;;;6.07;5.47;;;;;;;;;;4955191;28;20309;-82
2023/03/02 13:43:07;;;;;;;5.17;4.67;;;;;;;;;;4944154;28;20225;-82
2023/03/02 13:45:33;;;;;;;7.00;5.40;;;;;;;;;;4940175;28;20717;-83
2023/03/02 13:48:01;;;;;;;5.97;5.47;;;;;;;;;;4954911;28;20278;-84
2023/03/02 13:50:31;;;;;;;6.03;5.37;;;;;;;;;;4938514;28;20287;-86
2023/03/02 13:53:01;;;;;;;5.60;5.10;;;;;;;;;;4943902;28;20285;-85
2023/03/02 13:55:29;;;;;;;5.57;5.07;;;;;;;;;;4969243;28;20226;-85
2023/03/02 13:57:54;;;;;;;6.20;5.60;;;;;;;;;;4923188;28;20248;-85
2023/03/02 14:00:30;;;;;;;5.60;5.10;;;;;;;;;;4921821;28;20209;-84
2023/03/02 14:02:55;;;;;;;5.90;5.40;;;;;;;;;;4965713;28;20226;-84
2023/03/02 14:05:25;;;;;;;5.40;4.90;;;;;;;;;;4945857;28;20226;-85
2023/03/02 14:07:51;;;;;;;6.13;5.63;;;;;;;;;;4937347;28;20225;-85
2023/03/02 14:10:17;;;;;;;6.33;5.83;;;;;;;;;;4950965;28;20222;-85
2023/03/02 14:12:58;;;;;;;6.10;5.50;;;;;;;;;;4942150;28;20247;-85
2023/03/02 14:15:24;;;;;;;6.93;6.27;;;;;;;;;;4958803;28;20224;-85
2023/03/02 14:17:51;;;;;;;7.03;6.43;;;;;;;;;;4959342;28;20221;-84
2023/03/02 14:20:18;;;;;;;7.23;6.53;;;;;;;;;;4947064;28;20710;-83
2023/03/02 14:22:49;;;;;;;7.17;6.50;;;;;;;;;;4941594;28;20224;-84
2023/03/02 14:25:15;;;;;;;7.40;6.77;;;;;;;;;;4957480;28;20714;-84
2023/03/02 14:27:45;;;;;;;7.03;6.43;;;;;;;;;;4943501;28;20232;-84
2023/03/02 14:30:18;;;;;;;7.57;6.80;;;;;;;;;;4972803;28;20226;-82
2023/03/02 14:32:44;;;;;;;7.43;6.73;;;;;;;;;;4961587;28;20224;-84
2023/03/02 14:35:14;;;;;;;9.13;8.27;;;;;;;;;;4936039;28;20440;-84
2023/03/02 14:37:47;;;;;;;7.77;6.97;;;;;;;;;;4946305;28;20485;-84
2023/03/02 14:40:26;;;;;;;7.03;6.33;;;;;;;;;;4942700;28;20232;-83
2023/03/02 14:42:52;;;;;;;8.47;7.67;;;;;;;;;;4940394;28;20288;-83